Wetterdaten: Woche 25.06.12 - 01.07.12 (KW26)
Datum Zeit Temp. A. Feuchte A. Luftdruck Regen Wind Richtung Taupunkt Windchill Windben
25.06.2012 00:00 18,5 C 75 % 1012,6 hPa 0,0 l/m 2,2 km/h N 13,9 C 18,4 C 10,0 km/h
25.06.2012 01:00 17,9 C 79 % 1012,6 hPa 0,0 l/m 0,4 km/h N 14,2 C 17,9 C 5,6 km/h
25.06.2012 02:00 17,8 C 80 % 1011,8 hPa 0,0 l/m 0,1 km/h N 14,3 C 17,8 C 2,8 km/h
25.06.2012 03:00 17,7 C 81 % 1011,6 hPa 0,0 l/m 0,1 km/h N 14,4 C 17,7 C 2,4 km/h
25.06.2012 04:00 17,7 C 80 % 1011,7 hPa 0,0 l/m 0,0 km/h N 14,2 C 17,7 C 2,4 km/h
25.06.2012 05:00 17,7 C 80 % 1012,0 hPa 0,0 l/m 0,0 km/h N 14,2 C 17,7 C 2,0 km/h
25.06.2012 06:00 18,1 C 76 % 1011,9 hPa 0,0 l/m 0,6 km/h N 13,8 C 18,1 C 3,6 km/h
25.06.2012 07:00 19,6 C 64 % 1011,8 hPa 0,0 l/m 7,6 km/h N 12,6 C 18,7 C 23,8 km/h
25.06.2012 08:00 18,5 C 74 % 1012,5 hPa 1,8 l/m 5,6 km/h N 13,6 C 18,4 C 20,5 km/h
25.06.2012 09:00 16,8 C 81 % 1013,3 hPa 3,1 l/m 3,7 km/h N 13,5 C 16,8 C 15,3 km/h
25.06.2012 10:00 16,7 C 81 % 1013,6 hPa 1,6 l/m 3,3 km/h N 13,4 C 16,7 C 14,5 km/h
25.06.2012 11:00 17,3 C 80 % 1013,7 hPa 0,8 l/m 0,0 km/h N 13,8 C 17,3 C 2,0 km/h
25.06.2012 12:00 17,7 C 81 % 1014,0 hPa 0,0 l/m 3,5 km/h N 14,4 C 17,7 C 13,3 km/h
25.06.2012 13:00 18,2 C 76 % 1014,2 hPa 0,0 l/m 8,3 km/h N 13,8 C 17,1 C 25,7 km/h
25.06.2012 14:00 18,5 C 67 % 1013,5 hPa 0,0 l/m 8,8 km/h N 12,3 C 17,5 C 28,5 km/h
25.06.2012 15:00 18,2 C 67 % 1013,2 hPa 0,0 l/m 13,0 km/h N 11,9 C 15,6 C 36,6 km/h
25.06.2012 16:00 19,4 C 64 % 1013,3 hPa 0,0 l/m 15,2 km/h N 12,3 C 16,5 C 36,2 km/h
25.06.2012 17:00 20,0 C 55 % 1013,7 hPa 0,0 l/m 13,1 km/h N 10,6 C 17,8 C 33,0 km/h
25.06.2012 18:00 20,4 C 52 % 1013,3 hPa 0,0 l/m 12,3 km/h N 10,2 C 18,4 C 30,2 km/h
25.06.2012 19:00 20,0 C 50 % 1013,6 hPa 0,0 l/m 10,4 km/h N 9,3 C 18,6 C 29,4 km/h
25.06.2012 20:00 19,1 C 52 % 1014,2 hPa 0,0 l/m 7,8 km/h N 9,0 C 18,5 C 27,8 km/h
25.06.2012 21:00 18,4 C 55 % 1014,7 hPa 0,0 l/m 8,8 km/h N 9,1 C 17,3 C 24,5 km/h
25.06.2012 22:00 18,2 C 54 % 1015,4 hPa 0,0 l/m 8,1 km/h N 8,7 C 17,4 C 23,3 km/h
25.06.2012 23:00 18,3 C 53 % 1015,7 hPa 0,0 l/m 8,3 km/h N 8,6 C 17,4 C 25,7 km/h
26.06.2012 00:00 18,3 C 54 % 1015,9 hPa 0,0 l/m 8,6 km/h N 8,7 C 17,3 C 23,7 km/h
26.06.2012 01:00 18,0 C 57 % 1016,5 hPa 0,0 l/m 9,8 km/h N 9,3 C 16,6 C 27,0 km/h
26.06.2012 02:00 16,6 C 63 % 1017,1 hPa 0,0 l/m 3,8 km/h N 9,5 C 16,4 C 12,5 km/h
26.06.2012 03:00 15,8 C 66 % 1017,2 hPa 0,0 l/m 3,8 km/h N 9,4 C 15,8 C 14,5 km/h
26.06.2012 04:00 15,3 C 68 % 1017,4 hPa 0,0 l/m 3,2 km/h N 9,3 C 15,3 C 10,1 km/h
26.06.2012 05:00 15,0 C 66 % 1018,1 hPa 0,0 l/m 3,9 km/h N 8,7 C 14,8 C 15,3 km/h
26.06.2012 06:00 15,9 C 64 % 1018,5 hPa 0,0 l/m 6,8 km/h N 9,1 C 15,6 C 20,5 km/h
26.06.2012 07:00 16,6 C 62 % 1018,8 hPa 0,0 l/m 7,9 km/h N 9,3 C 15,8 C 20,9 km/h
26.06.2012 08:00 17,9 C 59 % 1019,0 hPa 0,0 l/m 7,3 km/h N 9,7 C 17,5 C 21,7 km/h
26.06.2012 09:00 18,9 C 55 % 1018,9 hPa 0,0 l/m 9,7 km/h N 9,7 C 17,5 C 24,1 km/h
26.06.2012 10:00 19,5 C 55 % 1018,8 hPa 0,0 l/m 10,6 km/h N 10,3 C 18,0 C 27,3 km/h
26.06.2012 11:00 20,6 C 51 % 1018,7 hPa 0,0 l/m 12,4 km/h N 10,2 C 18,6 C 31,8 km/h
26.06.2012 12:00 21,1 C 49 % 1018,4 hPa 0,0 l/m 12,8 km/h N 10,1 C 19,1 C 33,4 km/h
26.06.2012 13:00 21,5 C 50 % 1018,4 hPa 0,0 l/m 13,9 km/h N 10,6 C 19,3 C 32,6 km/h
26.06.2012 14:00 22,4 C 47 % 1018,3 hPa 0,0 l/m 13,4 km/h N 10,5 C 20,5 C 32,6 km/h
26.06.2012 15:00 22,9 C 44 % 1018,3 hPa 0,0 l/m 12,2 km/h N 10,0 C 21,4 C 30,6 km/h
26.06.2012 16:00 23,2 C 42 % 1018,0 hPa 0,0 l/m 14,0 km/h N 9,7 C 21,3 C 33,8 km/h
26.06.2012 17:00 23,1 C 43 % 1017,9 hPa 0,0 l/m 12,9 km/h N 9,6 C 21,4 C 31,0 km/h
26.06.2012 18:00 23,2 C 43 % 1017,9 hPa 0,0 l/m 9,2 km/h N 9,8 C 22,4 C 25,3 km/h
26.06.2012 19:00 22,6 C 45 % 1018,0 hPa 0,0 l/m 7,2 km/h N 10,0 C 22,3 C 25,4 km/h
26.06.2012 20:00 21,4 C 47 % 1018,2 hPa 0,0 l/m 6,9 km/h N 9,5 C 21,1 C 20,9 km/h
26.06.2012 21:00 20,5 C 51 % 1018,7 hPa 0,0 l/m 4,2 km/h N 9,9 C 20,5 C 16,9 km/h
26.06.2012 22:00 20,3 C 51 % 1018,8 hPa 0,0 l/m 4,8 km/h N 9,8 C 20,3 C 17,3 km/h
26.06.2012 23:00 20,2 C 52 % 1019,0 hPa 0,0 l/m 6,7 km/h N 9,9 C 20,0 C 19,7 km/h
27.06.2012 00:00 19,8 C 52 % 1019,3 hPa 0,0 l/m 7,4 km/h N 9,7 C 19,2 C 18,5 km/h
27.06.2012 01:00 19,0 C 56 % 1019,5 hPa 0,0 l/m 6,4 km/h N 9,9 C 18,8 C 18,5 km/h
27.06.2012 02:00 17,5 C 60 % 1019,9 hPa 0,0 l/m 5,0 km/h N 9,8 C 17,5 C 14,5 km/h
27.06.2012 03:00 16,1 C 65 % 1020,2 hPa 0,0 l/m 2,8 km/h N 9,6 C 16,1 C 9,7 km/h
27.06.2012 04:00 15,1 C 68 % 1020,5 hPa 0,0 l/m 0,3 km/h N 9,1 C 15,1 C 2,8 km/h
27.06.2012 05:00 13,7 C 73 % 1021,0 hPa 0,0 l/m 0,0 km/h N 8,9 C 13,7 C 0,0 km/h
27.06.2012 06:00 13,3 C 78 % 1021,2 hPa 0,0 l/m 0,1 km/h N 9,5 C 13,3 C 1,2 km/h
27.06.2012 07:00 15,3 C 72 % 1021,2 hPa 0,0 l/m 0,1 km/h N 10,3 C 15,3 C 2,4 km/h
27.06.2012 08:00 18,3 C 61 % 1021,2 hPa 0,0 l/m 0,9 km/h N 10,7 C 18,3 C 4,8 km/h
27.06.2012 09:00 19,5 C 56 % 1020,8 hPa 0,0 l/m 5,1 km/h N 10,5 C 19,5 C 13,3 km/h
27.06.2012 10:00 20,8 C 53 % 1020,5 hPa 0,0 l/m 7,7 km/h N 10,7 C 20,2 C 19,3 km/h
27.06.2012 11:00 22,1 C 51 % 1020,0 hPa 0,0 l/m 7,0 km/h N 11,3 C 21,8 C 18,9 km/h
27.06.2012 12:00 23,0 C 47 % 1019,5 hPa 0,0 l/m 6,8 km/h N 11,1 C 22,7 C 19,7 km/h
27.06.2012 13:00 23,4 C 47 % 1018,9 hPa 0,0 l/m 6,4 km/h N 11,4 C 23,1 C 18,9 km/h
27.06.2012 14:00 24,4 C 44 % 1018,1 hPa 0,0 l/m 4,7 km/h N 11,2 C 24,4 C 19,3 km/h
27.06.2012 15:00 24,2 C 45 % 1017,8 hPa 0,0 l/m 6,3 km/h N 11,5 C 24,2 C 22,5 km/h
27.06.2012 16:00 25,4 C 44 % 1017,2 hPa 0,0 l/m 7,3 km/h N 12,1 C 25,0 C 23,3 km/h
27.06.2012 17:00 25,5 C 43 % 1016,7 hPa 0,0 l/m 7,1 km/h N 12,1 C 25,3 C 19,3 km/h
27.06.2012 18:00 25,4 C 43 % 1016,2 hPa 0,0 l/m 5,8 km/h N 11,9 C 25,3 C 20,1 km/h
27.06.2012 19:00 25,0 C 45 % 1015,9 hPa 0,0 l/m 4,5 km/h N 12,2 C 25,0 C 18,5 km/h
27.06.2012 20:00 24,1 C 48 % 1016,0 hPa 0,0 l/m 0,5 km/h N 12,4 C 24,1 C 6,4 km/h
27.06.2012 21:00 21,9 C 54 % 1015,8 hPa 0,0 l/m 0,0 km/h N 12,2 C 21,9 C 0,4 km/h
27.06.2012 22:00 19,6 C 62 % 1015,6 hPa 0,0 l/m 0,0 km/h N 12,2 C 19,6 C 0,0 km/h
27.06.2012 23:00 18,3 C 67 % 1015,3 hPa 0,0 l/m 0,0 km/h N 12,1 C 18,3 C 0,0 km/h
28.06.2012 00:00 17,0 C 73 % 1015,0 hPa 0,0 l/m 0,1 km/h N 12,1 C 17,0 C 2,0 km/h
28.06.2012 01:00 16,6 C 76 % 1014,4 hPa 0,0 l/m 0,0 km/h N 12,2 C 16,6 C 0,8 km/h
28.06.2012 02:00 17,5 C 75 % 1014,0 hPa 0,0 l/m 0,0 km/h N 12,9 C 17,5 C 0,0 km/h
28.06.2012 03:00 17,8 C 74 % 1013,5 hPa 0,0 l/m 0,0 km/h N 13,2 C 17,8 C 1,2 km/h
28.06.2012 04:00 17,6 C 76 % 1013,1 hPa 0,0 l/m 0,0 km/h N 13,3 C 17,6 C 0,4 km/h
28.06.2012 05:00 17,2 C 79 % 1013,0 hPa 0,0 l/m 0,0 km/h N 13,4 C 17,2 C 0,4 km/h
28.06.2012 06:00 17,5 C 79 % 1013,3 hPa 0,0 l/m 0,0 km/h N 13,8 C 17,5 C 0,0 km/h
28.06.2012 07:00 20,1 C 71 % 1013,5 hPa 0,0 l/m 2,1 km/h N 14,6 C 20,1 C 7,3 km/h
28.06.2012 08:00 22,5 C 64 % 1013,6 hPa 0,0 l/m 3,2 km/h N 15,3 C 22,5 C 14,9 km/h
28.06.2012 09:00 23,6 C 61 % 1013,8 hPa 0,0 l/m 7,5 km/h N 15,6 C 23,3 C 18,9 km/h
28.06.2012 10:00 24,3 C 58 % 1014,1 hPa 0,0 l/m 6,3 km/h N 15,6 C 24,3 C 16,9 km/h
28.06.2012 11:00 25,4 C 58 % 1013,8 hPa 0,0 l/m 6,4 km/h N 16,4 C 25,3 C 16,5 km/h
28.06.2012 12:00 26,3 C 57 % 1013,4 hPa 0,0 l/m 5,7 km/h N 17,0 C 26,3 C 18,1 km/h
28.06.2012 13:00 26,3 C 57 % 1013,1 hPa 0,0 l/m 5,5 km/h N 16,9 C 26,2 C 16,5 km/h
28.06.2012 14:00 26,9 C 54 % 1012,6 hPa 0,0 l/m 4,5 km/h N 16,9 C 26,9 C 14,9 km/h
28.06.2012 15:00 27,4 C 54 % 1012,4 hPa 0,0 l/m 4,7 km/h N 17,3 C 27,4 C 13,7 km/h
28.06.2012 16:00 28,4 C 50 % 1012,0 hPa 0,0 l/m 4,8 km/h N 16,8 C 28,4 C 14,5 km/h
28.06.2012 17:00 28,9 C 46 % 1011,5 hPa 0,0 l/m 5,7 km/h N 16,2 C 28,9 C 16,9 km/h
28.06.2012 18:00 29,2 C 45 % 1011,3 hPa 0,0 l/m 2,3 km/h N 16,1 C 29,2 C 7,2 km/h
28.06.2012 19:00 28,8 C 48 % 1011,3 hPa 0,0 l/m 1,5 km/h N 16,5 C 28,8 C 11,3 km/h
28.06.2012 20:00 27,0 C 52 % 1011,3 hPa 0,0 l/m 0,1 km/h N 16,4 C 27,0 C 2,8 km/h
28.06.2012 21:00 24,4 C 60 % 1011,8 hPa 0,0 l/m 0,0 km/h N 16,0 C 24,4 C 0,4 km/h
28.06.2012 22:00 21,5 C 70 % 1012,3 hPa 0,0 l/m 0,0 km/h N 15,6 C 21,5 C 0,4 km/h
28.06.2012 23:00 19,8 C 75 % 1012,4 hPa 0,0 l/m 0,0 km/h N 15,2 C 19,8 C 0,0 km/h
29.06.2012 00:00 18,9 C 79 % 1012,4 hPa 0,0 l/m 0,0 km/h N 15,2 C 18,9 C 0,4 km/h
29.06.2012 01:00 18,2 C 81 % 1012,4 hPa 0,0 l/m 0,0 km/h N 14,8 C 18,2 C 0,0 km/h
29.06.2012 02:00 17,6 C 81 % 1012,1 hPa 0,0 l/m 0,0 km/h N 14,3 C 17,6 C 0,0 km/h
29.06.2012 03:00 17,2 C 81 % 1011,8 hPa 0,0 l/m 0,0 km/h N 14,0 C 17,2 C 0,0 km/h
29.06.2012 04:00 16,8 C 81 % 1011,5 hPa 0,0 l/m 0,0 km/h N 13,5 C 16,8 C 0,0 km/h
29.06.2012 05:00 16,5 C 80 % 1011,4 hPa 0,0 l/m 0,0 km/h N 13,1 C 16,5 C 0,0 km/h
29.06.2012 06:00 17,0 C 79 % 1011,9 hPa 0,0 l/m 0,1 km/h N 13,3 C 17,0 C 2,0 km/h
29.06.2012 07:00 18,8 C 81 % 1011,9 hPa 0,0 l/m 0,6 km/h N 15,4 C 18,8 C 5,6 km/h
29.06.2012 08:00 21,9 C 73 % 1012,3 hPa 0,0 l/m 0,8 km/h N 16,9 C 21,9 C 6,8 km/h
29.06.2012 09:00 24,2 C 67 % 1012,6 hPa 0,0 l/m 1,1 km/h N 17,6 C 24,2 C 6,8 km/h
29.06.2012 10:00 25,6 C 63 % 1012,6 hPa 0,0 l/m 1,4 km/h N 17,8 C 25,6 C 6,8 km/h
29.06.2012 11:00 27,2 C 59 % 1012,6 hPa 0,0 l/m 2,3 km/h N 18,4 C 27,2 C 10,9 km/h
29.06.2012 12:00 28,6 C 56 % 1012,6 hPa 0,0 l/m 1,7 km/h N 19,0 C 28,6 C 7,2 km/h
29.06.2012 13:00 29,8 C 53 % 1011,8 hPa 0,0 l/m 1,9 km/h N 19,2 C 29,8 C 8,9 km/h
29.06.2012 14:00 31,1 C 50 % 1011,3 hPa 0,0 l/m 1,6 km/h N 19,4 C 31,1 C 9,3 km/h
29.06.2012 15:00 32,7 C 45 % 1010,7 hPa 0,0 l/m 2,4 km/h N 19,3 C 32,7 C 10,5 km/h
29.06.2012 16:00 32,7 C 45 % 1010,5 hPa 0,0 l/m 1,9 km/h N 19,1 C 32,7 C 10,9 km/h
29.06.2012 17:00 31,4 C 48 % 1010,7 hPa 0,0 l/m 6,5 km/h N 18,8 C 31,2 C 21,7 km/h
29.06.2012 18:00 27,5 C 61 % 1010,9 hPa 0,0 l/m 4,3 km/h N 19,3 C 27,5 C 15,3 km/h
29.06.2012 19:00 28,6 C 61 % 1010,4 hPa 0,0 l/m 1,1 km/h N 20,3 C 28,6 C 6,0 km/h
29.06.2012 20:00 28,1 C 64 % 1010,2 hPa 0,0 l/m 0,1 km/h N 20,7 C 28,1 C 4,0 km/h
29.06.2012 21:00 26,3 C 68 % 1010,7 hPa 0,0 l/m 0,2 km/h N 19,7 C 26,3 C 2,4 km/h
29.06.2012 22:00 24,4 C 72 % 1010,8 hPa 0,0 l/m 0,0 km/h N 18,9 C 24,4 C 0,4 km/h
29.06.2012 23:00 22,6 C 78 % 1010,9 hPa 0,0 l/m 0,0 km/h N 18,5 C 22,6 C 0,4 km/h
30.06.2012 00:00 21,7 C 81 % 1011,0 hPa 0,0 l/m 0,0 km/h N 18,1 C 21,7 C 0,4 km/h
30.06.2012 01:00 20,7 C 81 % 1010,9 hPa 0,0 l/m 0,0 km/h N 17,3 C 20,7 C 0,4 km/h
30.06.2012 02:00 19,7 C 81 % 1010,9 hPa 0,0 l/m 0,0 km/h N 16,3 C 19,7 C 0,0 km/h
30.06.2012 03:00 19,1 C 80 % 1011,0 hPa 0,0 l/m 0,0 km/h N 15,5 C 19,1 C 0,0 km/h
30.06.2012 04:00 18,6 C 79 % 1011,3 hPa 0,0 l/m 0,0 km/h N 15,0 C 18,6 C 0,0 km/h
30.06.2012 05:00 18,2 C 79 % 1011,9 hPa 0,0 l/m 0,0 km/h N 14,5 C 18,2 C 0,0 km/h
30.06.2012 06:00 18,7 C 77 % 1012,3 hPa 0,0 l/m 0,0 km/h N 14,5 C 18,7 C 0,4 km/h
30.06.2012 07:00 20,4 C 76 % 1012,3 hPa 0,0 l/m 0,2 km/h N 16,0 C 20,4 C 2,8 km/h
30.06.2012 08:00 23,3 C 78 % 1012,1 hPa 0,0 l/m 2,8 km/h N 19,2 C 23,3 C 9,3 km/h
30.06.2012 09:00 26,2 C 69 % 1012,3 hPa 0,0 l/m 2,0 km/h N 20,1 C 26,2 C 7,6 km/h
30.06.2012 10:00 28,5 C 64 % 1012,4 hPa 0,0 l/m 2,0 km/h N 21,0 C 28,5 C 9,3 km/h
30.06.2012 11:00 30,8 C 58 % 1012,3 hPa 0,0 l/m 2,4 km/h N 21,4 C 30,8 C 12,5 km/h
30.06.2012 12:00 32,6 C 53 % 1012,0 hPa 0,0 l/m 2,6 km/h N 21,7 C 32,6 C 12,9 km/h
30.06.2012 13:00 34,0 C 51 % 1011,8 hPa 0,0 l/m 1,9 km/h N 22,2 C 34,0 C 12,9 km/h
30.06.2012 14:00 35,0 C 46 % 1011,4 hPa 0,0 l/m 3,7 km/h N 21,5 C 35,0 C 16,1 km/h
30.06.2012 15:00 35,8 C 42 % 1011,1 hPa 0,0 l/m 2,8 km/h N 20,8 C 35,8 C 17,7 km/h
30.06.2012 16:00 35,8 C 39 % 1010,7 hPa 0,0 l/m 3,5 km/h N 19,7 C 35,8 C 15,7 km/h
30.06.2012 17:00 36,0 C 38 % 1010,4 hPa 0,0 l/m 3,7 km/h N 19,2 C 36,0 C 14,5 km/h
30.06.2012 18:00 35,9 C 38 % 1010,2 hPa 0,0 l/m 3,5 km/h N 19,2 C 35,9 C 15,3 km/h
30.06.2012 19:00 34,8 C 40 % 1010,3 hPa 0,0 l/m 2,8 km/h N 19,2 C 34,8 C 12,9 km/h
30.06.2012 20:00 33,1 C 43 % 1010,3 hPa 0,0 l/m 1,7 km/h N 18,9 C 33,1 C 12,1 km/h
30.06.2012 21:00 31,1 C 47 % 1010,7 hPa 0,0 l/m 0,9 km/h N 18,4 C 31,1 C 7,2 km/h
30.06.2012 22:00 29,5 C 53 % 1010,7 hPa 0,0 l/m 0,3 km/h N 18,7 C 29,5 C 4,8 km/h
30.06.2012 23:00 27,0 C 62 % 1010,6 hPa 0,0 l/m 0,1 km/h N 19,1 C 27,0 C 3,2 km/h
01.07.2012 00:00 25,8 C 68 % 1010,7 hPa 0,0 l/m 0,1 km/h N 19,3 C 25,8 C 1,6 km/h
01.07.2012 01:00 23,9 C 75 % 1010,6 hPa 0,0 l/m 0,0 km/h N 19,1 C 23,9 C 0,8 km/h
01.07.2012 02:00 22,9 C 78 % 1010,0 hPa 0,0 l/m 0,1 km/h N 18,9 C 22,9 C 2,0 km/h
01.07.2012 03:00 23,1 C 79 % 1010,0 hPa 0,0 l/m 0,1 km/h N 19,2 C 23,1 C 2,0 km/h
01.07.2012 04:00 22,4 C 80 % 1010,0 hPa 0,0 l/m 0,2 km/h N 18,8 C 22,4 C 2,8 km/h
01.07.2012 05:00 22,4 C 80 % 1010,1 hPa 0,0 l/m 0,0 km/h N 18,7 C 22,4 C 0,8 km/h
01.07.2012 06:00 22,5 C 81 % 1011,1 hPa 0,0 l/m 0,8 km/h N 19,0 C 22,5 C 3,2 km/h
01.07.2012 07:00 25,0 C 73 % 1012,4 hPa 0,0 l/m 4,5 km/h N 19,7 C 24,8 C 18,9 km/h
01.07.2012 08:00 26,5 C 65 % 1013,0 hPa 0,0 l/m 10,4 km/h N 19,3 C 25,8 C 29,4 km/h
01.07.2012 09:00 27,2 C 63 % 1013,3 hPa 0,0 l/m 11,8 km/h N 19,3 C 26,3 C 25,8 km/h
01.07.2012 10:00 28,0 C 58 % 1013,5 hPa 0,0 l/m 9,8 km/h N 18,8 C 27,5 C 22,5 km/h
01.07.2012 11:00 29,4 C 53 % 1013,2 hPa 0,0 l/m 7,0 km/h N 18,7 C 29,3 C 18,9 km/h
01.07.2012 12:00 30,5 C 51 % 1013,2 hPa 0,0 l/m 4,7 km/h N 19,1 C 30,4 C 14,5 km/h
01.07.2012 13:00 32,1 C 48 % 1012,8 hPa 0,0 l/m 2,0 km/h N 19,5 C 32,1 C 9,3 km/h
01.07.2012 14:00 34,0 C 44 % 1012,4 hPa 0,0 l/m 1,5 km/h N 19,9 C 34,0 C 8,9 km/h
01.07.2012 15:00 34,8 C 41 % 1011,8 hPa 0,0 l/m 3,2 km/h N 19,4 C 34,8 C 13,7 km/h
01.07.2012 16:00 35,1 C 39 % 1011,0 hPa 0,0 l/m 3,6 km/h N 19,0 C 35,1 C 16,9 km/h
01.07.2012 17:00 35,3 C 41 % 1010,5 hPa 0,0 l/m 5,3 km/h N 19,9 C 35,3 C 18,5 km/h
01.07.2012 18:00 35,6 C 39 % 1010,2 hPa 0,0 l/m 4,7 km/h N 19,3 C 35,6 C 16,9 km/h
01.07.2012 19:00 34,4 C 41 % 1009,8 hPa 0,0 l/m 2,2 km/h N 19,1 C 34,4 C 12,1 km/h
01.07.2012 20:00 33,0 C 44 % 1010,8 hPa 0,0 l/m 2,2 km/h N 19,0 C 33,0 C 8,9 km/h
01.07.2012 21:00 31,5 C 49 % 1012,3 hPa 0,0 l/m 0,6 km/h N 19,4 C 31,5 C 5,2 km/h
01.07.2012 22:00 28,1 C 52 % 1014,3 hPa 0,0 l/m 8,4 km/h N 17,4 C 27,7 C 25,7 km/h
01.07.2012 23:00 25,6 C 60 % 1015,5 hPa 0,0 l/m 7,5 km/h N 17,3 C 25,3 C 26,6 km/h
Min-Datum _ 27.06.12 30.06.12 01.07.12 - 25.06.12 - 25.06.12 27.06.12 25.06.12
_ Min-Zeit 06:15 16:45 19:15 - 02:15 - 22:45 06:00 05:30
Minimum _ 13,1 C 37 % 1009,5 hPa - 0,0 km/h - 8,5 C 13,1 C 0,0 km/h
Max-Datum _ 30.06.12 25.06.12 27.06.12 25.06.12 26.06.12 - 30.06.12 30.06.12 25.06.12
_ Max-Zeit 17:45 12:15 06:30 09:00 14:00 - 13:00 18:00 15:30
Maximum _ 36,2 C 82 % 1021,3 hPa 3,1 l/m 17,9 km/h
N
- 22,4 C 36,2 C 41,8 km/h
N
Durchschnitt _ 23,2 C 61 % 1013,9 hPa #7,3 l/m 3,9 km/h N 14,7 C 22,9 C 12,7 km/h